sensor_id;sensor_type;location;lat;lon;timestamp;pressure;altitude;pressure_sealevel;temperature;humidity
13553;BME280;6847;48.830;9.116;2023-11-18T00:02:29;98757.38;;;8.60;72.54
13553;BME280;6847;48.830;9.116;2023-11-18T00:05:17;98738.31;;;8.49;72.88
13553;BME280;6847;48.830;9.116;2023-11-18T00:08:03;98775.97;;;8.73;72.60
13553;BME280;6847;48.830;9.116;2023-11-18T00:10:49;98773.38;;;8.78;72.86
13553;BME280;6847;48.830;9.116;2023-11-18T00:13:39;98772.88;;;8.81;73.02
13553;BME280;6847;48.830;9.116;2023-11-18T00:16:26;98773.44;;;8.83;72.63
13553;BME280;6847;48.830;9.116;2023-11-18T00:19:12;98731.22;;;8.60;72.92
13553;BME280;6847;48.830;9.116;2023-11-18T00:21:58;98766.97;;;8.84;72.56
13553;BME280;6847;48.830;9.116;2023-11-18T00:24:43;98766.16;;;8.83;73.00
13553;BME280;6847;48.830;9.116;2023-11-18T00:27:31;98773.69;;;8.81;73.30
13553;BME280;6847;48.830;9.116;2023-11-18T00:30:18;98775.31;;;8.82;72.52
13553;BME280;6847;48.830;9.116;2023-11-18T00:33:04;98763.16;;;8.80;73.01
13553;BME280;6847;48.830;9.116;2023-11-18T00:35:50;98764.50;;;8.82;72.99
13553;BME280;6847;48.830;9.116;2023-11-18T00:38:36;98766.97;;;8.84;73.06
13553;BME280;6847;48.830;9.116;2023-11-18T00:41:21;98768.13;;;8.88;73.24
13553;BME280;6847;48.830;9.116;2023-11-18T00:44:07;98772.47;;;8.89;73.00
13553;BME280;6847;48.830;9.116;2023-11-18T00:46:55;98774.66;;;8.92;72.91
13553;BME280;6847;48.830;9.116;2023-11-18T00:49:42;98772.53;;;8.94;73.20
13553;BME280;6847;48.830;9.116;2023-11-18T00:52:30;98726.53;;;8.72;73.15
13553;BME280;6847;48.830;9.116;2023-11-18T00:55:16;98771.66;;;9.05;72.63
13553;BME280;6847;48.830;9.116;2023-11-18T00:58:07;98775.00;;;9.12;72.75
13553;BME280;6847;48.830;9.116;2023-11-18T01:00:52;98776.97;;;9.17;72.47
13553;BME280;6847;48.830;9.116;2023-11-18T01:03:38;98778.63;;;9.18;72.59
13553;BME280;6847;48.830;9.116;2023-11-18T01:06:24;98773.53;;;9.21;72.73
13553;BME280;6847;48.830;9.116;2023-11-18T01:09:12;98772.69;;;9.21;72.56
13553;BME280;6847;48.830;9.116;2023-11-18T01:11:57;98775.16;;;9.22;72.40
13553;BME280;6847;48.830;9.116;2023-11-18T01:14:50;98776.31;;;9.26;72.51
13553;BME280;6847;48.830;9.116;2023-11-18T01:17:36;98777.44;;;9.31;72.35
13553;BME280;6847;48.830;9.116;2023-11-18T01:20:24;98789.88;;;9.32;72.23
13553;BME280;6847;48.830;9.116;2023-11-18T01:23:10;98786.72;;;9.35;71.77
13553;BME280;6847;48.830;9.116;2023-11-18T01:25:58;98792.44;;;9.38;72.33
13553;BME280;6847;48.830;9.116;2023-11-18T01:28:44;98800.56;;;9.38;71.98
13553;BME280;6847;48.830;9.116;2023-11-18T01:31:30;98797.44;;;9.30;71.82
13553;BME280;6847;48.830;9.116;2023-11-18T01:34:17;98804.81;;;9.34;72.27
13553;BME280;6847;48.830;9.116;2023-11-18T01:37:18;98805.13;;;9.38;72.00
13553;BME280;6847;48.830;9.116;2023-11-18T01:40:06;98789.06;;;9.31;72.12
13553;BME280;6847;48.830;9.116;2023-11-18T01:42:57;98807.41;;;9.46;72.19
13553;BME280;6847;48.830;9.116;2023-11-18T01:45:43;98803.97;;;9.50;72.46
13553;BME280;6847;48.830;9.116;2023-11-18T01:48:29;98805.28;;;9.48;71.97
13553;BME280;6847;48.830;9.116;2023-11-18T01:51:19;98812.00;;;9.45;72.11
13553;BME280;6847;48.830;9.116;2023-11-18T01:54:07;98739.47;;;9.04;72.26
13553;BME280;6847;48.830;9.116;2023-11-18T01:56:53;98799.22;;;9.41;72.57
13553;BME280;6847;48.830;9.116;2023-11-18T01:59:41;98796.59;;;9.46;71.83
13553;BME280;6847;48.830;9.116;2023-11-18T02:02:31;98809.06;;;9.47;72.13
13553;BME280;6847;48.830;9.116;2023-11-18T02:05:19;98806.94;;;9.49;72.27
13553;BME280;6847;48.830;9.116;2023-11-18T02:08:08;98794.78;;;9.51;72.10
13553;BME280;6847;48.830;9.116;2023-11-18T02:10:57;98785.56;;;9.47;72.17
13553;BME280;6847;48.830;9.116;2023-11-18T02:13:48;98805.44;;;9.58;71.50
13553;BME280;6847;48.830;9.116;2023-11-18T02:16:40;98791.69;;;9.59;71.60
13553;BME280;6847;48.830;9.116;2023-11-18T02:19:28;98783.66;;;9.48;72.08
13553;BME280;6847;48.830;9.116;2023-11-18T02:22:15;98805.94;;;9.55;71.95
13553;BME280;6847;48.830;9.116;2023-11-18T02:25:02;98713.78;;;9.01;71.69
13553;BME280;6847;48.830;9.116;2023-11-18T02:27:51;98785.22;;;9.44;72.18
13553;BME280;6847;48.830;9.116;2023-11-18T02:30:37;98792.91;;;9.52;71.85
13553;BME280;6847;48.830;9.116;2023-11-18T02:33:27;98787.09;;;9.43;72.16
13553;BME280;6847;48.830;9.116;2023-11-18T02:36:26;98786.63;;;9.30;71.97
13553;BME280;6847;48.830;9.116;2023-11-18T02:39:22;98803.34;;;9.26;72.76
13553;BME280;6847;48.830;9.116;2023-11-18T02:42:10;98785.50;;;9.09;72.09
13553;BME280;6847;48.830;9.116;2023-11-18T02:45:00;98771.41;;;8.90;72.17
13553;BME280;6847;48.830;9.116;2023-11-18T02:47:46;98801.72;;;9.09;71.62
13553;BME280;6847;48.830;9.116;2023-11-18T02:50:32;98801.38;;;9.05;72.24
13553;BME280;6847;48.830;9.116;2023-11-18T02:53:19;98800.22;;;9.01;72.02
13553;BME280;6847;48.830;9.116;2023-11-18T02:56:07;98794.97;;;8.95;72.23
13553;BME280;6847;48.830;9.116;2023-11-18T02:58:54;98788.44;;;8.90;71.83
13553;BME280;6847;48.830;9.116;2023-11-18T03:01:41;98789.75;;;8.88;72.04
13553;BME280;6847;48.830;9.116;2023-11-18T03:04:27;98786.13;;;8.82;71.96
13553;BME280;6847;48.830;9.116;2023-11-18T03:07:20;98782.88;;;8.80;71.85
13553;BME280;6847;48.830;9.116;2023-11-18T03:10:07;98791.19;;;8.79;71.66
13553;BME280;6847;48.830;9.116;2023-11-18T03:12:55;98780.88;;;8.76;71.82
13553;BME280;6847;48.830;9.116;2023-11-18T03:15:41;98786.75;;;8.73;72.07
13553;BME280;6847;48.830;9.116;2023-11-18T03:18:27;98791.84;;;8.69;71.75
13553;BME280;6847;48.830;9.116;2023-11-18T03:21:13;98786.34;;;8.64;71.91
13553;BME280;6847;48.830;9.116;2023-11-18T03:23:59;98784.16;;;8.61;71.94
13553;BME280;6847;48.830;9.116;2023-11-18T03:26:47;98788.72;;;8.61;72.08
13553;BME280;6847;48.830;9.116;2023-11-18T03:29:33;98777.66;;;8.62;72.26
13553;BME280;6847;48.830;9.116;2023-11-18T03:32:18;98786.09;;;8.66;72.40
13553;BME280;6847;48.830;9.116;2023-11-18T03:35:05;98779.72;;;8.72;71.50
13553;BME280;6847;48.830;9.116;2023-11-18T03:37:52;98784.56;;;8.70;71.42
13553;BME280;6847;48.830;9.116;2023-11-18T03:40:40;98783.97;;;8.68;72.05
13553;BME280;6847;48.830;9.116;2023-11-18T03:43:28;98786.09;;;8.66;72.00
13553;BME280;6847;48.830;9.116;2023-11-18T03:46:14;98793.63;;;8.64;72.08
13553;BME280;6847;48.830;9.116;2023-11-18T03:48:59;98788.56;;;8.67;71.84
13553;BME280;6847;48.830;9.116;2023-11-18T03:51:47;98754.41;;;8.44;71.59
13553;BME280;6847;48.830;9.116;2023-11-18T03:54:33;98791.34;;;8.72;72.15
13553;BME280;6847;48.830;9.116;2023-11-18T03:57:19;98782.75;;;8.75;72.03
13553;BME280;6847;48.830;9.116;2023-11-18T04:00:05;98783.00;;;8.74;71.57
13553;BME280;6847;48.830;9.116;2023-11-18T04:02:51;98786.09;;;8.66;71.81
13553;BME280;6847;48.830;9.116;2023-11-18T04:05:36;98791.31;;;8.56;72.24
13553;BME280;6847;48.830;9.116;2023-11-18T04:08:24;98789.84;;;8.48;72.37
13553;BME280;6847;48.830;9.116;2023-11-18T04:11:09;98783.25;;;8.44;72.41
13553;BME280;6847;48.830;9.116;2023-11-18T04:13:55;98791.28;;;8.39;71.94
13553;BME280;6847;48.830;9.116;2023-11-18T04:16:41;98788.47;;;8.34;72.31
13553;BME280;6847;48.830;9.116;2023-11-18T04:19:29;98788.59;;;8.27;71.70
13553;BME280;6847;48.830;9.116;2023-11-18T04:22:15;98788.50;;;8.22;72.15
13553;BME280;6847;48.830;9.116;2023-11-18T04:25:01;98788.38;;;8.17;72.23
13553;BME280;6847;48.830;9.116;2023-11-18T04:27:48;98803.91;;;8.10;71.71
13553;BME280;6847;48.830;9.116;2023-11-18T04:30:33;98784.91;;;8.05;71.58
13553;BME280;6847;48.830;9.116;2023-11-18T04:33:20;98786.22;;;8.02;71.93
13553;BME280;6847;48.830;9.116;2023-11-18T04:36:09;98791.25;;;7.99;71.80
13553;BME280;6847;48.830;9.116;2023-11-18T04:38:54;98794.44;;;7.96;71.97
13553;BME280;6847;48.830;9.116;2023-11-18T04:41:41;98792.22;;;7.93;71.76
13553;BME280;6847;48.830;9.116;2023-11-18T04:44:26;98787.63;;;7.93;71.49
13553;BME280;6847;48.830;9.116;2023-11-18T04:47:12;98792.69;;;7.90;71.54
13553;BME280;6847;48.830;9.116;2023-11-18T04:50:03;98783.34;;;7.80;71.44
13553;BME280;6847;48.830;9.116;2023-11-18T04:52:49;98792.47;;;7.79;71.80
13553;BME280;6847;48.830;9.116;2023-11-18T04:55:35;98786.97;;;7.74;71.52
13553;BME280;6847;48.830;9.116;2023-11-18T04:58:22;98787.31;;;7.66;72.14
13553;BME280;6847;48.830;9.116;2023-11-18T05:01:10;98800.22;;;7.64;71.63
13553;BME280;6847;48.830;9.116;2023-11-18T05:03:56;98779.38;;;7.60;71.52
13553;BME280;6847;48.830;9.116;2023-11-18T05:06:43;98790.25;;;7.65;71.57
13553;BME280;6847;48.830;9.116;2023-11-18T05:09:28;98781.13;;;7.66;71.42
13553;BME280;6847;48.830;9.116;2023-11-18T05:12:16;98777.16;;;7.57;71.31
13553;BME280;6847;48.830;9.116;2023-11-18T05:15:09;98778.34;;;7.49;71.50
13553;BME280;6847;48.830;9.116;2023-11-18T05:17:56;98779.97;;;7.38;71.50
13553;BME280;6847;48.830;9.116;2023-11-18T05:20:44;98765.22;;;7.18;71.33
13553;BME280;6847;48.830;9.116;2023-11-18T05:23:31;98606.84;;;6.21;71.82
13553;BME280;6847;48.830;9.116;2023-11-18T05:26:21;98786.44;;;7.14;71.64
13553;BME280;6847;48.830;9.116;2023-11-18T05:29:36;98775.41;;;7.04;71.79
13553;BME280;6847;48.830;9.116;2023-11-18T05:32:26;98784.31;;;7.04;71.79
13553;BME280;6847;48.830;9.116;2023-11-18T05:35:11;98782.66;;;7.03;71.55
13553;BME280;6847;48.830;9.116;2023-11-18T05:37:56;98729.72;;;6.74;71.46
13553;BME280;6847;48.830;9.116;2023-11-18T05:40:44;98776.69;;;7.01;71.74
13553;BME280;6847;48.830;9.116;2023-11-18T05:43:39;98781.47;;;6.99;71.53
13553;BME280;6847;48.830;9.116;2023-11-18T05:46:25;98782.53;;;6.98;71.56
13553;BME280;6847;48.830;9.116;2023-11-18T05:49:26;98778.78;;;6.99;71.67
13553;BME280;6847;48.830;9.116;2023-11-18T05:52:12;98780.28;;;6.95;71.54
13553;BME280;6847;48.830;9.116;2023-11-18T05:54:57;98773.75;;;6.91;71.27
13553;BME280;6847;48.830;9.116;2023-11-18T05:57:43;98774.19;;;6.88;71.24
13553;BME280;6847;48.830;9.116;2023-11-18T06:00:29;98766.00;;;6.83;71.17
13553;BME280;6847;48.830;9.116;2023-11-18T06:03:14;98767.28;;;6.81;71.52
13553;BME280;6847;48.830;9.116;2023-11-18T06:06:02;98765.28;;;6.76;71.71
13553;BME280;6847;48.830;9.116;2023-11-18T06:08:51;98768.09;;;6.69;71.67
13553;BME280;6847;48.830;9.116;2023-11-18T06:11:38;98767.16;;;6.64;71.74
13553;BME280;6847;48.830;9.116;2023-11-18T06:14:30;98764.31;;;6.59;71.28
13553;BME280;6847;48.830;9.116;2023-11-18T06:17:15;98754.94;;;6.50;71.29
13553;BME280;6847;48.830;9.116;2023-11-18T06:20:08;98751.53;;;6.43;71.55
13553;BME280;6847;48.830;9.116;2023-11-18T06:22:56;98756.75;;;6.38;71.77
13553;BME280;6847;48.830;9.116;2023-11-18T06:25:41;98757.22;;;6.35;71.46
13553;BME280;6847;48.830;9.116;2023-11-18T06:28:28;98759.31;;;6.32;71.39
13553;BME280;6847;48.830;9.116;2023-11-18T06:31:20;98774.88;;;6.30;71.29
13553;BME280;6847;48.830;9.116;2023-11-18T06:34:08;98768.75;;;6.23;71.21
13553;BME280;6847;48.830;9.116;2023-11-18T06:36:57;98770.72;;;6.16;71.70
13553;BME280;6847;48.830;9.116;2023-11-18T06:39:43;98786.53;;;6.24;71.34
13553;BME280;6847;48.830;9.116;2023-11-18T06:42:31;98796.69;;;6.22;71.60
13553;BME280;6847;48.830;9.116;2023-11-18T06:45:18;98802.06;;;6.22;71.46
13553;BME280;6847;48.830;9.116;2023-11-18T06:48:07;98784.28;;;6.21;71.38
13553;BME280;6847;48.830;9.116;2023-11-18T06:50:52;98772.81;;;6.14;71.27
13553;BME280;6847;48.830;9.116;2023-11-18T06:53:40;98781.16;;;6.24;71.71
13553;BME280;6847;48.830;9.116;2023-11-18T06:56:32;98781.16;;;6.24;71.69
13553;BME280;6847;48.830;9.116;2023-11-18T06:59:20;98775.91;;;6.29;71.75
13553;BME280;6847;48.830;9.116;2023-11-18T07:02:06;98780.63;;;6.34;71.56
13553;BME280;6847;48.830;9.116;2023-11-18T07:04:56;98775.34;;;6.39;71.91
13553;BME280;6847;48.830;9.116;2023-11-18T07:07:41;98780.94;;;6.56;71.71
13553;BME280;6847;48.830;9.116;2023-11-18T07:10:28;98784.00;;;6.71;71.42
13553;BME280;6847;48.830;9.116;2023-11-18T07:13:15;98786.16;;;6.92;71.69
13553;BME280;6847;48.830;9.116;2023-11-18T07:16:03;98771.06;;;7.26;70.75
13553;BME280;6847;48.830;9.116;2023-11-18T07:18:51;98793.50;;;8.42;69.54
13553;BME280;6847;48.830;9.116;2023-11-18T07:21:36;98803.84;;;9.62;66.71
13553;BME280;6847;48.830;9.116;2023-11-18T07:24:22;98800.28;;;10.38;64.82
13553;BME280;6847;48.830;9.116;2023-11-18T07:27:10;98800.28;;;10.92;64.64
13553;BME280;6847;48.830;9.116;2023-11-18T07:30:01;98707.09;;;10.61;63.94
13553;BME280;6847;48.830;9.116;2023-11-18T07:32:54;98765.94;;;11.77;63.36
13553;BME280;6847;48.830;9.116;2023-11-18T07:35:45;98805.13;;;12.84;61.79
13553;BME280;6847;48.830;9.116;2023-11-18T07:38:32;98800.00;;;12.87;61.88
13553;BME280;6847;48.830;9.116;2023-11-18T07:41:25;98768.97;;;12.58;63.09
13553;BME280;6847;48.830;9.116;2023-11-18T07:44:13;98804.34;;;13.04;63.25
13553;BME280;6847;48.830;9.116;2023-11-18T07:47:18;98797.06;;;13.29;63.32
13553;BME280;6847;48.830;9.116;2023-11-18T07:50:08;98796.47;;;13.68;62.88
13553;BME280;6847;48.830;9.116;2023-11-18T07:53:01;98785.53;;;13.83;62.96
13553;BME280;6847;48.830;9.116;2023-11-18T07:55:48;98781.50;;;13.65;63.73
13553;BME280;6847;48.830;9.116;2023-11-18T07:58:47;98791.34;;;13.36;64.80
13553;BME280;6847;48.830;9.116;2023-11-18T08:01:33;98791.84;;;13.13;65.54
13553;BME280;6847;48.830;9.116;2023-11-18T08:04:38;98738.56;;;12.71;66.16
13553;BME280;6847;48.830;9.116;2023-11-18T08:07:29;98794.56;;;12.87;66.81
13553;BME280;6847;48.830;9.116;2023-11-18T08:10:15;98797.78;;;12.69;66.89
13553;BME280;6847;48.830;9.116;2023-11-18T08:13:04;98790.69;;;12.58;67.77
13553;BME280;6847;48.830;9.116;2023-11-18T08:15:55;98682.16;;;11.85;68.16
13553;BME280;6847;48.830;9.116;2023-11-18T08:18:43;98796.63;;;12.45;68.17
13553;BME280;6847;48.830;9.116;2023-11-18T08:21:40;98809.13;;;12.41;68.07
13553;BME280;6847;48.830;9.116;2023-11-18T08:24:33;98809.03;;;12.20;68.91
13553;BME280;6847;48.830;9.116;2023-11-18T08:27:33;98788.28;;;11.89;68.70
13553;BME280;6847;48.830;9.116;2023-11-18T08:30:19;98806.19;;;11.90;69.07
13553;BME280;6847;48.830;9.116;2023-11-18T08:33:14;98760.94;;;11.59;69.38
13553;BME280;6847;48.830;9.116;2023-11-18T08:36:02;98801.22;;;11.77;69.72
13553;BME280;6847;48.830;9.116;2023-11-18T08:38:50;98808.22;;;11.73;69.62
13553;BME280;6847;48.830;9.116;2023-11-18T08:41:58;98807.38;;;11.67;70.29
13553;BME280;6847;48.830;9.116;2023-11-18T08:45:03;98801.94;;;11.67;70.37
13553;BME280;6847;48.830;9.116;2023-11-18T08:48:04;98795.19;;;11.70;70.30
13553;BME280;6847;48.830;9.116;2023-11-18T08:50:58;98800.09;;;11.73;70.37
13553;BME280;6847;48.830;9.116;2023-11-18T08:53:58;98752.16;;;11.41;70.50
13553;BME280;6847;48.830;9.116;2023-11-18T08:57:05;98799.47;;;11.61;69.73
13553;BME280;6847;48.830;9.116;2023-11-18T09:00:10;98733.75;;;11.48;70.79
13553;BME280;6847;48.830;9.116;2023-11-18T09:07:06;98745.34;;;12.53;70.24
13553;BME280;6847;48.830;9.116;2023-11-18T09:10:18;98779.91;;;12.98;69.80
13553;BME280;6847;48.830;9.116;2023-11-18T09:17:00;98788.59;;;12.90;69.54
13553;BME280;6847;48.830;9.116;2023-11-18T09:19:45;98783.97;;;12.91;69.56
13553;BME280;6847;48.830;9.116;2023-11-18T09:22:34;98791.88;;;12.92;69.91
13553;BME280;6847;48.830;9.116;2023-11-18T09:25:23;98789.66;;;12.84;69.35
13553;BME280;6847;48.830;9.116;2023-11-18T09:28:14;98789.16;;;12.92;70.05
13553;BME280;6847;48.830;9.116;2023-11-18T09:31:07;98784.25;;;13.00;69.85
13553;BME280;6847;48.830;9.116;2023-11-18T09:33:55;98785.34;;;13.09;69.73
13553;BME280;6847;48.830;9.116;2023-11-18T09:36:45;98771.19;;;12.96;69.24
13553;BME280;6847;48.830;9.116;2023-11-18T09:39:36;98789.13;;;13.13;69.43
13553;BME280;6847;48.830;9.116;2023-11-18T09:42:32;98790.81;;;13.19;70.02
13553;BME280;6847;48.830;9.116;2023-11-18T09:45:20;98795.16;;;13.15;69.47
13553;BME280;6847;48.830;9.116;2023-11-18T09:48:08;98773.94;;;13.02;69.61
13553;BME280;6847;48.830;9.116;2023-11-18T09:50:56;98789.13;;;13.13;69.41
13553;BME280;6847;48.830;9.116;2023-11-18T09:53:49;98781.56;;;13.20;69.48
13553;BME280;6847;48.830;9.116;2023-11-18T09:56:40;98773.38;;;13.35;69.29
13553;BME280;6847;48.830;9.116;2023-11-18T09:59:50;98761.41;;;13.46;69.21
13553;BME280;6847;48.830;9.116;2023-11-18T10:02:46;98779.59;;;13.66;69.02
13553;BME280;6847;48.830;9.116;2023-11-18T10:05:36;98769.78;;;13.80;68.56
13553;BME280;6847;48.830;9.116;2023-11-18T10:08:24;98778.19;;;13.84;68.68
13553;BME280;6847;48.830;9.116;2023-11-18T10:11:12;98733.59;;;13.75;68.69
13553;BME280;6847;48.830;9.116;2023-11-18T10:14:03;98771.56;;;14.15;68.61
13553;BME280;6847;48.830;9.116;2023-11-18T10:17:04;98771.56;;;14.15;68.51
13553;BME280;6847;48.830;9.116;2023-11-18T10:19:53;98764.97;;;14.21;68.35
13553;BME280;6847;48.830;9.116;2023-11-18T10:22:40;98769.38;;;14.17;68.41
13553;BME280;6847;48.830;9.116;2023-11-18T10:25:26;98767.69;;;14.26;68.53
13553;BME280;6847;48.830;9.116;2023-11-18T10:28:25;98755.16;;;14.25;68.34
13553;BME280;6847;48.830;9.116;2023-11-18T10:31:18;98778.00;;;14.34;68.50
13553;BME280;6847;48.830;9.116;2023-11-18T10:34:08;98755.44;;;14.29;68.04
13553;BME280;6847;48.830;9.116;2023-11-18T10:40:18;98776.44;;;14.72;67.88
13553;BME280;6847;48.830;9.116;2023-11-18T10:43:13;98785.09;;;14.85;67.84
13553;BME280;6847;48.830;9.116;2023-11-18T10:46:13;98768.66;;;14.95;67.66
13553;BME280;6847;48.830;9.116;2023-11-18T10:49:03;98779.25;;;15.01;67.48
13553;BME280;6847;48.830;9.116;2023-11-18T10:51:58;98761.75;;;15.07;67.41
13553;BME280;6847;48.830;9.116;2023-11-18T10:54:50;98761.69;;;15.17;67.32
13553;BME280;6847;48.830;9.116;2023-11-18T10:57:40;98713.41;;;14.84;67.29
13553;BME280;6847;48.830;9.116;2023-11-18T11:00:47;98751.00;;;15.21;67.34
13553;BME280;6847;48.830;9.116;2023-11-18T11:03:55;98741.53;;;15.08;67.30
13553;BME280;6847;48.830;9.116;2023-11-18T11:07:13;98712.19;;;14.66;67.52
13553;BME280;6847;48.830;9.116;2023-11-18T11:10:09;98747.19;;;14.88;67.64
13553;BME280;6847;48.830;9.116;2023-11-18T11:13:00;98755.38;;;14.83;67.65
13553;BME280;6847;48.830;9.116;2023-11-18T11:15:50;98748.91;;;14.74;67.70
13553;BME280;6847;48.830;9.116;2023-11-18T11:18:40;98751.91;;;14.77;67.69
13553;BME280;6847;48.830;9.116;2023-11-18T11:21:35;98759.28;;;14.72;67.62
13553;BME280;6847;48.830;9.116;2023-11-18T11:24:56;98736.97;;;14.65;67.45
13553;BME280;6847;48.830;9.116;2023-11-18T11:27:59;98746.81;;;14.61;67.53
13553;BME280;6847;48.830;9.116;2023-11-18T11:30:50;98741.41;;;14.51;67.45
13553;BME280;6847;48.830;9.116;2023-11-18T11:33:39;98731.69;;;14.34;67.66
13553;BME280;6847;48.830;9.116;2023-11-18T11:36:42;98720.31;;;14.22;67.75
13553;BME280;6847;48.830;9.116;2023-11-18T11:43:19;98723.72;;;13.99;67.47
13553;BME280;6847;48.830;9.116;2023-11-18T11:49:47;98713.44;;;13.76;67.46
13553;BME280;6847;48.830;9.116;2023-11-18T11:53:02;98707.22;;;13.65;67.22
13553;BME280;6847;48.830;9.116;2023-11-18T11:55:53;98696.88;;;13.62;67.40
13553;BME280;6847;48.830;9.116;2023-11-18T11:58:48;98691.19;;;13.53;67.46
13553;BME280;6847;48.830;9.116;2023-11-18T12:01:37;98687.38;;;13.54;67.34
13553;BME280;6847;48.830;9.116;2023-11-18T12:04:24;98680.84;;;13.55;66.96
13553;BME280;6847;48.830;9.116;2023-11-18T12:07:14;98684.66;;;13.54;67.04
13553;BME280;6847;48.830;9.116;2023-11-18T12:10:08;98677.09;;;13.41;66.86
13553;BME280;6847;48.830;9.116;2023-11-18T12:13:07;98674.66;;;13.40;66.98
13553;BME280;6847;48.830;9.116;2023-11-18T12:15:54;98672.78;;;13.30;67.20
13553;BME280;6847;48.830;9.116;2023-11-18T12:18:43;98662.72;;;13.10;66.98
13553;BME280;6847;48.830;9.116;2023-11-18T12:21:59;98652.69;;;13.01;66.89
13553;BME280;6847;48.830;9.116;2023-11-18T12:28:28;98629.88;;;12.76;66.72
13553;BME280;6847;48.830;9.116;2023-11-18T12:31:41;98638.03;;;12.76;66.74
13553;BME280;6847;48.830;9.116;2023-11-18T12:34:52;98616.31;;;12.61;66.25
13553;BME280;6847;48.830;9.116;2023-11-18T12:38:10;98632.59;;;12.66;66.66
13553;BME280;6847;48.830;9.116;2023-11-18T12:41:08;98619.56;;;12.58;66.13
13553;BME280;6847;48.830;9.116;2023-11-18T12:44:10;98620.66;;;12.47;66.75
13553;BME280;6847;48.830;9.116;2023-11-18T12:47:03;98613.88;;;12.39;66.64
13553;BME280;6847;48.830;9.116;2023-11-18T12:50:02;98619.00;;;12.36;66.02
13553;BME280;6847;48.830;9.116;2023-11-18T12:53:05;98618.75;;;12.37;66.11
13553;BME280;6847;48.830;9.116;2023-11-18T12:55:52;98619.81;;;12.36;66.29
13553;BME280;6847;48.830;9.116;2023-11-18T12:58:38;98607.63;;;12.34;66.00
13553;BME280;6847;48.830;9.116;2023-11-18T13:01:28;98610.88;;;12.20;66.68
13553;BME280;6847;48.830;9.116;2023-11-18T13:04:21;98591.84;;;12.05;66.26
13553;BME280;6847;48.830;9.116;2023-11-18T13:07:10;98598.06;;;12.06;66.08
13553;BME280;6847;48.830;9.116;2023-11-18T13:09:57;98604.88;;;12.03;66.13
13553;BME280;6847;48.830;9.116;2023-11-18T13:12:43;98610.31;;;12.03;65.69
13553;BME280;6847;48.830;9.116;2023-11-18T13:15:34;98585.84;;;11.88;65.65
13553;BME280;6847;48.830;9.116;2023-11-18T13:18:41;98597.25;;;11.95;66.47
13553;BME280;6847;48.830;9.116;2023-11-18T13:21:28;98593.97;;;11.88;65.88
13553;BME280;6847;48.830;9.116;2023-11-18T13:24:15;98585.28;;;11.81;66.18
13553;BME280;6847;48.830;9.116;2023-11-18T13:27:08;98539.63;;;11.53;66.07
13553;BME280;6847;48.830;9.116;2023-11-18T13:29:58;98584.97;;;11.72;66.41
13553;BME280;6847;48.830;9.116;2023-11-18T13:32:50;98584.41;;;11.70;66.11
13553;BME280;6847;48.830;9.116;2023-11-18T13:35:43;98568.41;;;11.69;66.35
13553;BME280;6847;48.830;9.116;2023-11-18T13:38:31;98570.03;;;11.70;65.71
13553;BME280;6847;48.830;9.116;2023-11-18T13:41:31;98559.75;;;11.72;66.07
13553;BME280;6847;48.830;9.116;2023-11-18T13:44:33;98540.47;;;11.68;65.87
13553;BME280;6847;48.830;9.116;2023-11-18T13:47:22;98551.31;;;11.68;65.58
13553;BME280;6847;48.830;9.116;2023-11-18T13:50:10;98543.47;;;11.72;66.04
13553;BME280;6847;48.830;9.116;2023-11-18T13:52:59;98545.91;;;11.73;65.41
13553;BME280;6847;48.830;9.116;2023-11-18T13:55:47;98542.66;;;11.71;65.74
13553;BME280;6847;48.830;9.116;2023-11-18T13:58:44;98505.44;;;11.52;65.64
13553;BME280;6847;48.830;9.116;2023-11-18T14:01:32;98524.50;;;11.77;65.13
13553;BME280;6847;48.830;9.116;2023-11-18T14:04:17;98528.28;;;11.76;65.31
13553;BME280;6847;48.830;9.116;2023-11-18T14:07:06;98534.53;;;11.76;65.33
13553;BME280;6847;48.830;9.116;2023-11-18T14:10:06;98469.06;;;11.27;65.30
13553;BME280;6847;48.830;9.116;2023-11-18T14:13:06;98395.81;;;10.87;65.64
13553;BME280;6847;48.830;9.116;2023-11-18T14:15:55;98381.38;;;10.71;65.52
13553;BME280;6847;48.830;9.116;2023-11-18T14:18:45;98514.69;;;11.61;65.88
13553;BME280;6847;48.830;9.116;2023-11-18T14:24:34;98491.38;;;11.55;66.13
13553;BME280;6847;48.830;9.116;2023-11-18T14:27:24;98475.06;;;11.44;65.50
13553;BME280;6847;48.830;9.116;2023-11-18T14:30:15;98468.03;;;11.43;65.77
13553;BME280;6847;48.830;9.116;2023-11-18T14:33:12;98412.06;;;10.97;65.87
13553;BME280;6847;48.830;9.116;2023-11-18T14:36:03;98492.38;;;11.28;64.97
13553;BME280;6847;48.830;9.116;2023-11-18T14:38:54;98425.09;;;10.95;65.56
13553;BME280;6847;48.830;9.116;2023-11-18T14:41:41;98476.38;;;11.27;65.16
13553;BME280;6847;48.830;9.116;2023-11-18T14:44:31;98470.69;;;11.23;65.62
13553;BME280;6847;48.830;9.116;2023-11-18T14:47:20;98431.59;;;10.99;65.22
13553;BME280;6847;48.830;9.116;2023-11-18T14:50:08;98451.69;;;11.18;66.19
13553;BME280;6847;48.830;9.116;2023-11-18T14:53:04;98454.41;;;11.18;65.91
13553;BME280;6847;48.830;9.116;2023-11-18T14:55:56;98460.91;;;11.17;65.97
13553;BME280;6847;48.830;9.116;2023-11-18T14:58:44;98464.72;;;11.16;65.12
13553;BME280;6847;48.830;9.116;2023-11-18T15:01:33;98476.63;;;11.20;66.20
13553;BME280;6847;48.830;9.116;2023-11-18T15:04:26;98490.75;;;11.22;64.99
13553;BME280;6847;48.830;9.116;2023-11-18T15:07:13;98481.53;;;11.23;65.88
13553;BME280;6847;48.830;9.116;2023-11-18T15:10:00;98492.38;;;11.23;65.37
13553;BME280;6847;48.830;9.116;2023-11-18T15:12:55;98486.94;;;11.23;66.04
13553;BME280;6847;48.830;9.116;2023-11-18T15:15:43;98482.06;;;11.20;65.36
13553;BME280;6847;48.830;9.116;2023-11-18T15:18:30;98469.28;;;11.05;65.04
13553;BME280;6847;48.830;9.116;2023-11-18T15:21:18;98453.25;;;10.99;65.80
13553;BME280;6847;48.830;9.116;2023-11-18T15:24:08;98476.88;;;11.19;65.41
13553;BME280;6847;48.830;9.116;2023-11-18T15:27:01;98467.41;;;11.21;66.19
13553;BME280;6847;48.830;9.116;2023-11-18T15:29:48;98467.69;;;11.20;65.56
13553;BME280;6847;48.830;9.116;2023-11-18T15:32:49;98408.50;;;10.81;65.17
13553;BME280;6847;48.830;9.116;2023-11-18T15:35:42;98465.19;;;11.08;65.84
13553;BME280;6847;48.830;9.116;2023-11-18T15:38:29;98463.91;;;11.16;65.60
13553;BME280;6847;48.830;9.116;2023-11-18T15:41:19;98422.88;;;10.77;65.72
13553;BME280;6847;48.830;9.116;2023-11-18T15:44:20;98439.72;;;10.94;65.65
13553;BME280;6847;48.830;9.116;2023-11-18T15:47:06;98464.72;;;11.16;64.77
13553;BME280;6847;48.830;9.116;2023-11-18T15:49:54;98458.19;;;11.17;65.57